Terminal Aerodrome Forecast
Issued by NWS Boston, MA

Home | Current Version | Previous Version | Text Only | Print | Product List | Glossary On
Versions: 1 2 3 4 5 6 7 8 9 10 11 12 13 14 15 16 17 18 19 20 21 22 23 24 25 26
000
FTUS41 KBOX 232341
TAFORH
TAF
KORH 232341Z 2400/2424 22012KT P6SM FEW250
     FM240300 24009KT 3SM BR SCT250 WS020/25035KT
     FM240400 25008KT 3/4SM BR BKN250
     FM241100 24004KT 1/2SM FG VCSH BKN003
     FM241300 23005KT 1SM BR BKN010
     FM241600 21006KT P6SM BKN080
     FM242200 20008KT P6SM BKN020=

USA.gov is the U.S. government's official web portal to all federal, state and local government web resources and services.